Main page
Satellite images 15-day forecastsClimateMarine weather Cyclones Lightning AirportsFAQ Newsletter About
Weather : Europe Africa North America South America Asia Australia-Oceania Others
Languages Contact

Gloucester, England

Gloucestershire Airport Staverton

latitude: 51-54N, longitude: 002-10W, elevation: 29 m


METAR: EGBJ 221150Z 23006KT 200V260 9999 FEW035 13/08 Q1026
TAF: EGBJ 221059Z 2212/2219 24006KT 9999 FEW030

Time: 13:10 (12:10 UTC)

Current weather observation

The report was made 20 minutes ago, at 11:50 UTC
Wind 6 kt from the Southwest, varying between South/Southwest and West
Temperature 13°C
Humidity 72%
Pressure 1026 hPa
Visibility 10 km or more
Few clouds at a height of 3500 ft

Change units

Forecast

The report was made 1 hour and 11 minutes ago, at 10:59 UTC
Forecast valid from 22 at 12 UTC to 22 at 19 UTC
Wind 6 kt from the West/Southwest
Visibility 10 km or more
Few clouds at a height of 3000 ft
The information on this site is subject to a disclaimer
Weather : Europe Africa North America South America Asia Australia-Oceania Others
Satellite images 15-day forecastsClimateMarine weather Cyclones Lightning AirportsFAQ Languages Contact Newsletter About